Flight Track Log - Related Links

Times and Time Zones

All times are in EDT time to prevent confusion due to time zone crossing. See the N960SW flight status page for this flight to view local times or setup timezone preferences in your user account.

Time Position Orientation Groundspeed Altitude Reporting Facility
EDT Latitude Longitude Course Direction KTS MPH feet Rate Location/Type
Fri 12:52:21 PM 29.9644 -95.3483 92° East 154 177 600  Level Houston Center
Fri 12:57:32 PM 29.9497 -94.9450 85° East 286 329 9,000 1,633 Climbing Houston Center
Fri 12:58:32 PM 29.9561 -94.8519 86° East 291 335 10,700 1,700 Climbing Houston Center
Fri 12:59:32 PM 29.9625 -94.7536 84° East 291 335 12,400 1,700 Climbing Houston Center
Fri 01:00:32 PM 29.9711 -94.6508 85° East 303 349 14,100 1,500 Climbing Houston Center
Fri 01:02:32 PM 29.9861 -94.4331 85° East 314 361 16,900 1,333 Climbing Houston Center
Fri 01:03:32 PM 29.9944 -94.3231 82° East 326 375 18,100 1,150 Climbing Houston Center
Fri 01:04:32 PM 30.0072 -94.2108 82° East 338 389 19,200 1,250 Climbing Houston Center
Fri 01:05:32 PM 30.0217 -94.0958 82° East 350 403 20,600 1,400 Climbing Houston Center
Fri 01:06:32 PM 30.0342 -93.9883 82° East 350 403 22,000 1,200 Climbing Houston Center
Fri 01:07:32 PM 30.0483 -93.8783 82° East 350 403 23,000 950 Climbing Houston Center
Fri 01:08:32 PM 30.0606 -93.7728 83° East 355 409 23,900 900 Climbing Houston Center
Fri 01:09:32 PM 30.0728 -93.6603 81° East 355 409 24,800 743 Climbing Houston Center
Fri 01:15:32 PM 30.1733 -92.9417 77° East 371 427 29,100 517 Climbing Houston Center
Fri 01:21:32 PM 30.3181 -92.1808 77° East 403 464 31,000 173 Climbing Houston Center
Fri 01:26:32 PM 30.4486 -91.5311 82° East 409 471 31,000  Level Houston Center
Fri 01:27:32 PM 30.4650 -91.4008 77° East 409 471 31,000  Level Houston Center
Fri 01:28:32 PM 30.4897 -91.2731 75° East 409 471 31,000  Level Houston Center
Fri 01:29:32 PM 30.5206 -91.1428 75° East 409 471 31,000  Level Houston Center
Fri 01:30:32 PM 30.5494 -91.0172 77° East 409 471 31,000  Level Houston Center
Fri 01:31:32 PM 30.5758 -90.8869 75° East 409 471 31,000  Level Houston Center
Fri 01:32:32 PM 30.6064 -90.7586 75° East 414 476 31,000  Level Houston Center
Fri 01:33:32 PM 30.6347 -90.6331 75° East 409 471 31,000  Level Houston Center
Fri 01:34:32 PM 30.6650 -90.5022 76° East 409 471 31,000  Level Houston Center
Fri 01:35:32 PM 30.6931 -90.3717 75° East 414 476 31,000  Level Houston Center
Fri 01:36:32 PM 30.7231 -90.2456 75° East 414 476 31,000  Level Houston Center
Fri 01:38:32 PM 30.7806 -89.9861 75° East 414 476 31,000  Level Houston Center
Fri 01:39:32 PM 30.8103 -89.8575 76° East 414 476 31,000  Level Houston Center
Fri 01:40:32 PM 30.8375 -89.7264 76° East 414 476 31,000  Level Houston Center
Fri 01:41:32 PM 30.8650 -89.6003 77° East 414 476 31,000  Level Houston Center
Fri 01:42:32 PM 30.8919 -89.4689 76° East 414 476 31,000  Level Houston Center
Fri 01:43:32 PM 30.9192 -89.3378 76° East 414 476 31,000  Level Houston Center
Fri 01:44:32 PM 30.9481 -89.2064 75° East 414 476 31,000  Level Houston Center
Fri 01:45:32 PM 30.9769 -89.0797 77° East 414 476 31,000  Level Houston Center
Fri 01:46:32 PM 31.0056 -88.9361 78° East 414 476 31,000  Level Houston Center
Fri 01:47:32 PM 31.0261 -88.8242 77° East 408 470 31,000  Level Houston Center
Fri 01:48:32 PM 31.0525 -88.6950 75° East 408 470 31,000  Level Houston Center
Fri 01:49:32 PM 31.0847 -88.5533 65° Northeast 408 470 31,000  Level Houston Center
Fri 01:50:32 PM 31.1319 -88.4331 53° Northeast 413 475 31,000  Level Houston Center
Fri 01:51:32 PM 31.1983 -88.3314 54° Northeast 395 455 31,000  Level Houston Center
Fri 01:53:56 PM 31.3553 -88.0753 54° Northeast 388 447 31,000  Level Atlanta Center
Fri 01:54:56 PM 31.4211 -87.9686 54° Northeast 393 452 31,000  Level Atlanta Center
Fri 01:55:56 PM 31.4850 -87.8667 55° Northeast 393 452 31,000  Level Atlanta Center
Fri 01:56:56 PM 31.5486 -87.7597 53° Northeast 393 452 31,000  Level Atlanta Center
Fri 01:57:57 PM 31.6144 -87.6553 55° Northeast 393 452 31,000  Level Atlanta Center
Fri 01:58:56 PM 31.6781 -87.5478 54° Northeast 393 452 31,000  Level Atlanta Center
Fri 01:59:56 PM 31.7436 -87.4406 54° Northeast 393 452 31,000  Level Atlanta Center
Fri 02:00:56 PM 31.8092 -87.3331 56° Northeast 393 452 31,000 -300 Level Atlanta Center
Fri 02:01:56 PM 31.8725 -87.2231 56° Northeast 404 465 30,400 -750 Descending Atlanta Center
Fri 02:02:56 PM 31.9294 -87.1247 55° Northeast 404 465 29,500 -700 Descending Atlanta Center
Fri 02:03:56 PM 31.9967 -87.0119 55° Northeast 409 471 29,000 -250 Descending Atlanta Center
Fri 02:04:56 PM 32.0619 -86.9014 55° Northeast 409 471 29,000  Level Atlanta Center
Fri 02:05:56 PM 32.1272 -86.7931 53° Northeast 409 471 29,000  Level Atlanta Center
Fri 02:06:56 PM 32.2006 -86.6800 54° Northeast 409 471 29,000  Level Atlanta Center
Fri 02:07:56 PM 32.2653 -86.5736 55° Northeast 402 463 29,000  Level Atlanta Center
Fri 02:08:56 PM 32.3281 -86.4675 61° Northeast 397 457 29,000  Level Atlanta Center
Fri 02:09:56 PM 32.3803 -86.3556 56° Northeast 392 451 29,000  Level Atlanta Center
Fri 02:10:56 PM 32.4386 -86.2514 50° Northeast 384 442 29,000  Level Atlanta Center
Fri 02:11:56 PM 32.5156 -86.1425 54° Northeast 394 453 29,000  Level Atlanta Center
Fri 02:12:56 PM 32.5800 -86.0356 55° Northeast 404 465 29,000  Level Atlanta Center
Fri 02:13:56 PM 32.6378 -85.9381 54° Northeast 404 465 29,000 -250 Level Atlanta Center
Fri 02:14:56 PM 32.7042 -85.8311 55° Northeast 404 465 28,500 1,000 Descending Atlanta Center
Fri 02:15:56 PM 32.7725 -85.7139 53° Northeast 422 486 31,000 -2,400 Climbing Atlanta Center
Fri 02:16:56 PM 32.8431 -85.6014 55° Northeast 422 486 23,700 -5,250 Descending Atlanta Center
Fri 02:17:56 PM 32.9069 -85.4936 54° Northeast 406 467 20,500 -3,250 Descending Atlanta Center
Fri 02:18:56 PM 32.9772 -85.3783 55° Northeast 401 461 17,200 -3,300 Descending Atlanta Center
Fri 02:19:56 PM 33.0386 -85.2728 53° Northeast 396 456 13,900 -2,600 Descending Atlanta Center
Fri 02:20:56 PM 33.0981 -85.1769 54° Northeast 367 422 12,000 -950 Descending Atlanta Center
Fri 02:21:56 PM 33.1489 -85.0933 55° Northeast 325 374 12,000  Level Atlanta Center
Fri 02:22:56 PM 33.1956 -85.0144 30° Northeast 297 342 12,000 -800 Level Atlanta Center
Fri 02:23:56 PM 33.2669 -84.9656 27° Northeast 278 320 10,400 -1,600 Descending Atlanta Center
Fri 02:24:56 PM 33.3278 -84.9289 28° Northeast 278 320 8,800 -1,190 Descending Atlanta Center
Fri 02:25:57 PM 33.3969 -84.8847 28° Northeast 278 320 8,000 -450 Descending Atlanta Center
Fri 02:26:56 PM 33.4661 -84.8406 27° Northeast 278 320 7,900 -1,008 Descending Atlanta Center
Fri 02:27:56 PM 33.5331 -84.7989 33° Northeast 278 320 6,000 -1,750 Descending Atlanta Center
Fri 02:28:56 PM 33.5961 -84.7497 69° East 273 314 4,400 -1,150 Descending Atlanta Center
Fri 02:29:56 PM 33.6194 -84.6775 75° East 239 275 3,700 -800 Descending Atlanta Center
Fri 02:30:41 PM 33.6333 -84.6167 75° East 221 254 3,000 -933 Descending Atlanta TRACON

Login

Don't have an account? Register now (free) for customized features, flight alerts, and more!